createdAt,value
2018-09-04T00:01:18.977Z,26.07
2018-09-04T00:03:47.052Z,26.83
2018-09-04T00:06:15.152Z,26.33
2018-09-04T00:08:43.272Z,29.27
2018-09-04T00:11:11.389Z,27.73
2018-09-04T00:13:39.503Z,32.60
2018-09-04T00:16:09.631Z,31.33
2018-09-04T00:18:38.417Z,26.50
2018-09-04T00:21:06.807Z,26.80
2018-09-04T00:23:34.903Z,28.70
2018-09-04T00:26:03.040Z,27.40
2018-09-04T00:28:31.149Z,29.80
2018-09-04T00:30:59.263Z,28.43
2018-09-04T00:33:27.431Z,29.43
2018-09-04T00:35:55.543Z,28.53
2018-09-04T00:38:23.643Z,28.43
2018-09-04T00:40:52.746Z,28.97
2018-09-04T00:43:21.340Z,29.10
2018-09-04T00:45:49.443Z,29.07
2018-09-04T00:48:17.551Z,27.20
2018-09-04T00:50:45.663Z,27.43
2018-09-04T00:53:13.795Z,26.43
2018-09-04T00:55:41.902Z,29.70
2018-09-04T00:58:10.113Z,29.00
2018-09-04T01:00:38.241Z,26.70
2018-09-04T01:03:06.380Z,28.53
2018-09-04T01:05:34.489Z,25.60
2018-09-04T01:08:02.826Z,28.60
2018-09-04T01:10:30.960Z,25.73
2018-09-04T01:12:59.102Z,26.47
2018-09-04T01:15:27.203Z,27.00
2018-09-04T01:17:55.330Z,24.63
2018-09-04T01:20:23.460Z,24.20
2018-09-04T01:22:51.569Z,25.17
2018-09-04T01:25:19.672Z,25.03
2018-09-04T01:27:47.813Z,26.57
2018-09-04T01:30:15.923Z,24.73
2018-09-04T01:32:44.045Z,24.77
2018-09-04T01:35:12.151Z,23.53
2018-09-04T01:37:40.278Z,25.63
2018-09-04T01:40:08.374Z,26.53
2018-09-04T01:42:36.488Z,27.20
2018-09-04T01:45:04.596Z,28.57
2018-09-04T01:47:32.717Z,29.43
2018-09-04T01:50:00.827Z,28.53
2018-09-04T01:52:28.986Z,27.07
2018-09-04T01:54:57.214Z,25.10
2018-09-04T01:57:25.329Z,27.03
2018-09-04T01:59:53.432Z,25.13
2018-09-04T02:02:21.545Z,27.83
2018-09-04T02:04:49.660Z,27.90
2018-09-04T02:07:17.793Z,28.93
2018-09-04T02:09:45.900Z,28.27
2018-09-04T02:12:14.014Z,29.43
2018-09-04T02:14:42.132Z,24.90
2018-09-04T02:17:10.238Z,32.67
2018-09-04T02:19:38.348Z,25.87
2018-09-04T02:22:06.487Z,25.27
2018-09-04T02:24:34.615Z,26.00
2018-09-04T02:27:02.908Z,26.40
2018-09-04T02:29:31.007Z,23.53
2018-09-04T02:31:59.140Z,25.80
2018-09-04T02:34:27.259Z,26.37
2018-09-04T02:36:55.409Z,26.17
2018-09-04T02:39:23.511Z,22.87
2018-09-04T02:41:51.647Z,27.37
2018-09-04T02:44:19.762Z,25.73
2018-09-04T02:46:47.867Z,22.50
2018-09-04T02:49:15.986Z,22.97
2018-09-04T02:51:44.091Z,24.13
2018-09-04T02:54:12.199Z,25.17
2018-09-04T02:56:40.291Z,24.07
2018-09-04T02:59:08.399Z,23.93
2018-09-04T03:01:36.510Z,28.03
2018-09-04T03:04:04.627Z,22.30
2018-09-04T03:06:32.741Z,24.47
2018-09-04T03:09:00.839Z,22.90
2018-09-04T03:11:28.969Z,24.00
2018-09-04T03:13:57.115Z,23.30
2018-09-04T03:16:25.186Z,22.70
2018-09-04T03:18:53.298Z,23.00
2018-09-04T03:21:21.402Z,21.80
2018-09-04T03:23:49.530Z,26.20
2018-09-04T03:26:17.643Z,23.60
2018-09-04T03:28:45.787Z,24.13
2018-09-04T03:31:14.255Z,22.90
2018-09-04T03:33:42.363Z,22.50
2018-09-04T03:36:10.460Z,22.70
2018-09-04T03:38:38.579Z,23.47
2018-09-04T03:41:06.695Z,26.93
2018-09-04T03:43:34.808Z,23.00
2018-09-04T03:46:02.910Z,26.10
2018-09-04T03:48:31.125Z,28.23
2018-09-04T03:50:59.238Z,26.73
2018-09-04T03:53:27.364Z,23.40
2018-09-04T03:55:55.483Z,24.50
2018-09-04T03:58:23.595Z,24.70
2018-09-04T04:00:51.720Z,24.30
2018-09-04T04:03:19.833Z,23.40
2018-09-04T04:05:47.934Z,22.60
2018-09-04T04:08:16.041Z,25.20
2018-09-04T04:10:44.156Z,23.10
2018-09-04T04:13:12.261Z,22.43
2018-09-04T04:15:40.448Z,24.07
2018-09-04T04:18:08.616Z,25.03
2018-09-04T04:20:36.820Z,23.23
2018-09-04T04:23:05.255Z,26.83
2018-09-04T04:25:33.367Z,23.37
2018-09-04T04:28:01.451Z,25.00
2018-09-04T04:30:29.536Z,25.20
2018-09-04T04:32:57.665Z,24.03
2018-09-04T04:35:25.756Z,22.90
2018-09-04T04:37:53.847Z,26.93
2018-09-04T04:40:22.061Z,24.93
2018-09-04T04:42:50.147Z,23.73
2018-09-04T04:45:18.266Z,21.67
2018-09-04T04:47:47.273Z,25.00
2018-09-04T04:50:15.359Z,24.93
2018-09-04T04:52:43.444Z,24.60
2018-09-04T04:55:11.552Z,24.33
2018-09-04T04:57:39.684Z,24.13
2018-09-04T05:00:08.030Z,26.83
2018-09-04T05:02:36.199Z,23.93
2018-09-04T05:05:04.337Z,24.67
2018-09-04T05:07:32.534Z,29.30
2018-09-04T05:10:00.637Z,26.10
2018-09-04T05:12:28.756Z,25.80
2018-09-04T05:14:56.851Z,26.10
2018-09-04T05:17:24.948Z,26.33
2018-09-04T05:19:53.064Z,27.07
2018-09-04T05:22:21.166Z,25.90
2018-09-04T05:24:49.270Z,25.33
2018-09-04T05:27:17.361Z,22.90
2018-09-04T05:29:45.482Z,24.13
2018-09-04T05:32:18.804Z,25.17
2018-09-04T05:34:46.930Z,25.13
2018-09-04T05:37:15.040Z,25.97
2018-09-04T05:39:43.159Z,27.10
2018-09-04T05:42:16.794Z,26.57
2018-09-04T05:44:44.916Z,26.00
2018-09-04T05:47:13.010Z,26.93
2018-09-04T05:49:41.106Z,25.60
2018-09-04T05:52:09.207Z,28.07
2018-09-04T05:54:37.296Z,28.07
2018-09-04T05:57:05.387Z,27.30
2018-09-04T05:59:33.468Z,29.97
2018-09-04T06:02:01.568Z,29.17
2018-09-04T06:04:29.648Z,29.93
2018-09-04T06:06:57.788Z,28.20
2018-09-04T06:09:25.895Z,32.10
2018-09-04T06:11:54.003Z,32.50
2018-09-04T06:14:22.128Z,32.50
2018-09-04T06:16:50.236Z,29.80
2018-09-04T06:19:18.338Z,27.97
2018-09-04T06:21:46.451Z,29.17
2018-09-04T06:24:14.564Z,31.50
2018-09-04T06:26:42.679Z,30.10
2018-09-04T06:29:10.783Z,32.87
2018-09-04T06:31:39.090Z,30.13
2018-09-04T06:34:07.274Z,31.30
2018-09-04T06:36:35.413Z,32.40
2018-09-04T06:39:04.349Z,30.57
2018-09-04T06:41:32.676Z,31.87
2018-09-04T06:44:00.793Z,30.57
2018-09-04T06:46:28.909Z,33.03
2018-09-04T06:48:57.039Z,31.03
2018-09-04T06:51:25.160Z,30.03
2018-09-04T06:53:54.085Z,30.23
2018-09-04T06:56:22.248Z,29.20
2018-09-04T06:58:50.357Z,32.10
2018-09-04T07:01:18.484Z,26.90
2018-09-04T07:03:46.703Z,29.60
2018-09-04T07:06:14.819Z,30.57
2018-09-04T07:08:42.927Z,26.10
2018-09-04T07:11:11.028Z,29.97
2018-09-04T07:13:39.122Z,27.47
2018-09-04T07:16:07.220Z,27.03
2018-09-04T07:18:35.323Z,28.23
2018-09-04T07:21:03.438Z,27.03
2018-09-04T07:23:31.541Z,28.50
2018-09-04T07:25:59.737Z,30.00
2018-09-04T07:28:27.850Z,29.37
2018-09-04T07:30:55.952Z,28.87
2018-09-04T07:33:24.076Z,28.40
2018-09-04T07:35:52.193Z,27.00
2018-09-04T07:38:20.299Z,25.30
2018-09-04T07:40:48.399Z,26.60
2018-09-04T07:43:16.520Z,25.30
2018-09-04T07:45:44.653Z,31.80
2018-09-04T07:48:12.751Z,25.70
2018-09-04T07:50:40.843Z,25.37
2018-09-04T07:53:08.952Z,23.67
2018-09-04T07:55:37.035Z,23.97
2018-09-04T07:58:05.238Z,24.20
2018-09-04T08:00:33.337Z,23.47
2018-09-04T08:03:01.427Z,23.03
2018-09-04T08:05:29.533Z,24.50
2018-09-04T08:07:57.693Z,23.70
2018-09-04T08:10:25.815Z,21.87
2018-09-04T08:12:53.911Z,21.57
2018-09-04T08:15:22.010Z,23.00
2018-09-04T08:17:50.150Z,19.70
2018-09-04T08:20:18.277Z,22.30
2018-09-04T08:22:46.307Z,19.80
2018-09-04T08:25:14.407Z,20.00
2018-09-04T08:27:42.523Z,16.90
2018-09-04T08:30:10.660Z,19.47
2018-09-04T08:32:38.792Z,26.30
2018-09-04T08:35:06.874Z,21.00
2018-09-04T08:37:34.983Z,18.00
2018-09-04T08:40:03.127Z,20.23
2018-09-04T08:42:31.203Z,22.50
2018-09-04T08:44:59.316Z,18.70
2018-09-04T08:47:27.465Z,20.13
2018-09-04T08:49:55.541Z,19.80
2018-09-04T08:52:23.647Z,20.90
2018-09-04T08:54:51.783Z,19.93
2018-09-04T08:57:19.877Z,20.40
2018-09-04T08:59:48.004Z,21.67
2018-09-04T09:02:16.097Z,22.93
2018-09-04T09:04:44.260Z,25.33
2018-09-04T09:07:12.367Z,28.60
2018-09-04T09:09:40.513Z,25.53
2018-09-04T09:12:08.648Z,22.83
2018-09-04T09:14:36.795Z,22.07
2018-09-04T09:17:05.096Z,21.43
2018-09-04T09:19:33.192Z,19.23
2018-09-04T09:22:01.280Z,22.53
2018-09-04T09:24:29.387Z,21.63
2018-09-04T09:26:57.479Z,21.63
2018-09-04T09:29:25.594Z,22.97
2018-09-04T09:31:53.708Z,22.33
2018-09-04T09:34:21.828Z,24.00
2018-09-04T09:36:50.096Z,21.17
2018-09-04T09:39:18.648Z,23.40
2018-09-04T09:41:46.769Z,20.97
2018-09-04T09:44:14.887Z,22.60
2018-09-04T09:46:42.986Z,22.10
2018-09-04T09:49:11.100Z,19.73
2018-09-04T09:51:39.212Z,19.07
2018-09-04T09:54:07.312Z,19.60
2018-09-04T09:56:35.472Z,18.20
2018-09-04T09:59:03.648Z,22.20
2018-09-04T10:01:36.027Z,18.87
2018-09-04T10:04:05.963Z,17.37
2018-09-04T10:06:33.967Z,16.83
2018-09-04T10:09:02.104Z,15.93
2018-09-04T10:11:30.203Z,15.27
2018-09-04T10:13:58.355Z,16.57
2018-09-04T10:16:26.459Z,13.60
2018-09-04T10:18:54.563Z,14.20
2018-09-04T10:21:22.723Z,16.53
2018-09-04T10:23:50.801Z,13.67
2018-09-04T10:26:18.965Z,15.60
2018-09-04T10:28:47.023Z,13.83
2018-09-04T10:31:15.114Z,13.93
2018-09-04T10:33:43.218Z,13.30
2018-09-04T10:36:11.337Z,12.57
2018-09-04T10:38:39.427Z,12.73
2018-09-04T10:41:11.787Z,11.67
2018-09-04T10:43:39.878Z,13.53
2018-09-04T10:46:10.395Z,12.33
2018-09-04T10:48:39.891Z,15.30
2018-09-04T10:51:08.031Z,14.27
2018-09-04T10:53:36.131Z,12.53
2018-09-04T10:56:04.240Z,13.97
2018-09-04T10:58:32.340Z,14.37
2018-09-04T11:01:00.450Z,19.50
2018-09-04T11:03:28.546Z,13.03
2018-09-04T11:05:56.659Z,13.07
2018-09-04T11:08:24.831Z,13.80
2018-09-04T11:10:52.958Z,14.80
2018-09-04T11:13:21.047Z,12.90
2018-09-04T11:15:49.148Z,12.90
2018-09-04T11:18:17.239Z,12.57
2018-09-04T11:20:45.372Z,13.50
2018-09-04T11:23:13.465Z,12.17
2018-09-04T11:25:41.587Z,13.47
2018-09-04T11:28:09.690Z,12.40
2018-09-04T11:30:37.860Z,11.63
2018-09-04T11:33:05.903Z,10.90
2018-09-04T11:35:34.017Z,10.70
2018-09-04T11:38:02.160Z,11.50
2018-09-04T11:40:30.366Z,11.67
2018-09-04T11:42:58.602Z,12.03
2018-09-04T11:45:26.754Z,9.50
2018-09-04T11:47:54.843Z,12.60
2018-09-04T11:50:23.017Z,10.73
2018-09-04T11:52:51.183Z,11.83
2018-09-04T11:55:19.263Z,10.73
2018-09-04T11:57:47.390Z,12.90
2018-09-04T12:00:18.302Z,11.83
2018-09-04T12:02:46.675Z,10.27
2018-09-04T12:05:15.059Z,11.73
2018-09-04T12:07:43.193Z,11.67
2018-09-04T12:10:11.307Z,12.10
2018-09-04T12:12:39.473Z,12.17
2018-09-04T12:15:07.515Z,13.97
2018-09-04T12:17:35.611Z,10.43
2018-09-04T12:20:15.443Z,10.07
2018-09-04T12:22:43.538Z,11.07
2018-09-04T12:25:11.704Z,10.87
2018-09-04T12:27:39.792Z,9.13
2018-09-04T12:30:07.915Z,9.07
2018-09-04T12:32:36.022Z,8.83
2018-09-04T12:35:04.195Z,9.23
2018-09-04T12:37:32.295Z,8.73
2018-09-04T12:40:00.379Z,16.63
2018-09-04T12:42:28.552Z,11.77
2018-09-04T12:44:58.764Z,12.83
2018-09-04T12:47:26.857Z,9.30
2018-09-04T12:49:55.228Z,9.33
2018-09-04T12:52:23.335Z,10.93
2018-09-04T12:54:51.693Z,8.97
2018-09-04T12:57:20.080Z,11.50
2018-09-04T12:59:48.340Z,10.03
2018-09-04T13:02:16.444Z,9.27
2018-09-04T13:04:45.199Z,10.57
2018-09-04T13:07:13.307Z,10.63
2018-09-04T13:09:41.432Z,10.00
2018-09-04T13:12:09.550Z,9.80
2018-09-04T13:14:37.707Z,9.60
2018-09-04T13:17:06.702Z,9.60
2018-09-04T13:19:36.198Z,9.90
2018-09-04T13:22:04.562Z,10.60
2018-09-04T13:24:32.692Z,8.80
2018-09-04T13:27:00.801Z,9.43
2018-09-04T13:29:29.015Z,10.27
2018-09-04T13:31:58.010Z,11.87
2018-09-04T13:34:26.202Z,14.17
2018-09-04T13:36:54.280Z,10.70
2018-09-04T13:39:22.434Z,10.70
2018-09-04T13:41:50.555Z,10.20
2018-09-04T13:44:24.609Z,11.90
2018-09-04T13:46:53.295Z,9.37
2018-09-04T13:49:21.691Z,10.37
2018-09-04T13:51:49.728Z,10.10
2018-09-04T13:54:17.847Z,9.47
2018-09-04T13:56:45.987Z,10.20
2018-09-04T13:59:14.106Z,8.80
2018-09-04T14:01:42.232Z,10.03
2018-09-04T14:04:10.363Z,10.10
2018-09-04T14:06:38.475Z,9.73
2018-09-04T14:09:07.287Z,9.57
2018-09-04T14:11:35.379Z,9.70
2018-09-04T14:14:03.596Z,9.83
2018-09-04T14:16:43.146Z,10.60
2018-09-04T14:19:00.067Z,9.10
2018-09-04T14:21:28.164Z,9.13
2018-09-04T14:23:56.287Z,10.07
2018-09-04T14:26:24.390Z,9.37
2018-09-04T14:29:06.426Z,9.87
2018-09-04T14:31:20.600Z,9.23
2018-09-04T14:33:48.722Z,13.20
2018-09-04T14:36:16.976Z,12.47
2018-09-04T14:38:44.967Z,9.83
2018-09-04T14:41:13.062Z,10.30
2018-09-04T14:43:41.168Z,9.50
2018-09-04T14:46:12.458Z,10.27
2018-09-04T14:48:40.563Z,9.63
2018-09-04T14:51:08.654Z,8.43
2018-09-04T14:53:36.764Z,8.70
2018-09-04T14:56:05.182Z,7.67
2018-09-04T14:58:33.287Z,10.90
2018-09-04T15:01:01.407Z,9.20
2018-09-04T15:03:29.529Z,9.60
2018-09-04T15:05:57.659Z,9.03
2018-09-04T15:08:25.761Z,9.57
2018-09-04T15:10:53.872Z,7.90
2018-09-04T15:13:21.998Z,9.10
2018-09-04T15:15:50.197Z,8.73
2018-09-04T15:18:18.243Z,7.90
2018-09-04T15:20:46.384Z,8.50
2018-09-04T15:23:14.567Z,10.10
2018-09-04T15:25:42.696Z,9.00
2018-09-04T15:28:10.771Z,8.13
2018-09-04T15:30:39.507Z,8.10
2018-09-04T15:33:08.576Z,7.67
2018-09-04T15:35:36.714Z,7.90
2018-09-04T15:38:04.910Z,8.60
2018-09-04T15:40:33.316Z,8.83
2018-09-04T15:43:01.523Z,7.97
2018-09-04T15:45:29.802Z,6.90
2018-09-04T15:47:57.956Z,8.77
2018-09-04T15:50:26.129Z,8.03
2018-09-04T15:52:54.236Z,7.47
2018-09-04T15:55:22.383Z,7.17
2018-09-04T15:57:50.509Z,11.00
2018-09-04T16:00:18.635Z,8.63
2018-09-04T16:02:46.735Z,9.20
2018-09-04T16:05:14.844Z,8.30
2018-09-04T16:07:42.937Z,9.20
2018-09-04T16:10:11.151Z,7.97
2018-09-04T16:12:39.152Z,8.87
2018-09-04T16:15:07.237Z,7.63
2018-09-04T16:17:35.331Z,8.63
2018-09-04T16:20:03.413Z,7.67
2018-09-04T16:22:31.502Z,8.00
2018-09-04T16:24:59.587Z,10.70
2018-09-04T16:27:27.697Z,10.03
2018-09-04T16:29:55.851Z,7.47
2018-09-04T16:32:23.952Z,6.87
2018-09-04T16:34:52.203Z,8.00
2018-09-04T16:37:20.172Z,7.93
2018-09-04T16:39:48.300Z,8.77
2018-09-04T16:42:16.386Z,10.40
2018-09-04T16:44:44.683Z,7.53
2018-09-04T16:47:12.788Z,8.75
2018-09-04T16:49:40.870Z,8.63
2018-09-04T16:52:08.966Z,8.43
2018-09-04T16:54:37.045Z,7.67
2018-09-04T16:57:11.647Z,11.27
2018-09-04T16:59:39.741Z,7.17
2018-09-04T17:02:07.835Z,7.60
2018-09-04T17:04:35.931Z,9.77
2018-09-04T17:07:04.260Z,8.10
2018-09-04T17:09:32.351Z,7.37
2018-09-04T17:12:00.459Z,7.27
2018-09-04T17:14:28.561Z,7.00
2018-09-04T17:16:56.659Z,7.87
2018-09-04T17:19:24.752Z,7.67
2018-09-04T17:21:52.876Z,8.90
2018-09-04T17:24:20.958Z,7.93
2018-09-04T17:26:49.073Z,7.33
2018-09-04T17:29:17.178Z,7.63
2018-09-04T17:31:45.275Z,8.77
2018-09-04T17:34:13.374Z,8.20
2018-09-04T17:36:41.464Z,9.10
2018-09-04T17:39:09.631Z,11.23
2018-09-04T17:41:37.734Z,8.47
2018-09-04T17:44:06.018Z,7.27
2018-09-04T17:46:34.123Z,8.07
2018-09-04T17:49:02.219Z,6.87
2018-09-04T17:51:30.352Z,9.00
2018-09-04T17:53:58.471Z,8.03
2018-09-04T17:56:26.582Z,7.90
2018-09-04T17:58:54.738Z,10.10
2018-09-04T18:01:22.832Z,8.10
2018-09-04T18:03:50.979Z,8.55
2018-09-04T18:06:19.079Z,7.50
2018-09-04T18:08:47.192Z,14.53
2018-09-04T18:11:15.332Z,7.60
2018-09-04T18:13:43.415Z,7.03
2018-09-04T18:16:11.540Z,14.23
2018-09-04T18:18:39.647Z,14.60
2018-09-04T18:21:07.753Z,12.70
2018-09-04T18:23:35.855Z,9.63
2018-09-04T18:26:03.971Z,7.87
2018-09-04T18:28:32.105Z,7.77
2018-09-04T18:31:00.207Z,7.20
2018-09-04T18:33:28.335Z,8.43
2018-09-04T18:35:56.465Z,7.63
2018-09-04T18:38:24.556Z,7.37
2018-09-04T18:40:52.652Z,9.60
2018-09-04T18:43:20.763Z,8.60
2018-09-04T18:45:51.219Z,11.53
2018-09-04T18:48:19.347Z,8.03
2018-09-04T18:50:47.459Z,10.33
2018-09-04T18:53:15.599Z,8.17
2018-09-04T18:55:43.713Z,8.10
2018-09-04T18:58:12.301Z,9.60
2018-09-04T19:00:40.679Z,9.40
2018-09-04T19:03:08.834Z,7.70
2018-09-04T19:05:36.950Z,9.20
2018-09-04T19:08:05.263Z,10.50
2018-09-04T19:10:33.579Z,8.70
2018-09-04T19:13:02.284Z,8.50
2018-09-04T19:15:30.649Z,9.50
2018-09-04T19:17:58.782Z,10.40
2018-09-04T19:20:26.913Z,8.60
2018-09-04T19:22:54.992Z,8.73
2018-09-04T19:25:23.111Z,9.23
2018-09-04T19:27:51.203Z,10.57
2018-09-04T19:30:19.308Z,7.73
2018-09-04T19:32:47.390Z,12.10
2018-09-04T19:35:15.499Z,8.40
2018-09-04T19:37:43.593Z,7.60
2018-09-04T19:40:11.803Z,11.27
2018-09-04T19:42:40.692Z,8.47
2018-09-04T19:45:08.939Z,8.30
2018-09-04T19:47:37.251Z,14.00
2018-09-04T19:50:06.386Z,10.17
2018-09-04T19:52:34.453Z,9.40
2018-09-04T19:55:02.538Z,9.00
2018-09-04T19:57:30.611Z,9.00
2018-09-04T19:59:58.722Z,9.57
2018-09-04T20:02:26.810Z,8.60
2018-09-04T20:04:54.918Z,9.87
2018-09-04T20:07:23.042Z,10.40
2018-09-04T20:09:51.175Z,9.13
2018-09-04T20:12:19.384Z,10.10
2018-09-04T20:14:47.487Z,8.47
2018-09-04T20:17:15.574Z,9.30
2018-09-04T20:19:43.705Z,10.43
2018-09-04T20:22:11.806Z,11.43
2018-09-04T20:24:40.073Z,10.67
2018-09-04T20:27:08.179Z,9.70
2018-09-04T20:29:36.358Z,8.87
2018-09-04T20:32:04.390Z,10.40
2018-09-04T20:34:32.547Z,9.50
2018-09-04T20:37:00.695Z,10.80
2018-09-04T20:39:28.794Z,9.67
2018-09-04T20:41:57.014Z,11.13
2018-09-04T20:44:25.159Z,9.07
2018-09-04T20:46:53.299Z,12.17
2018-09-04T20:49:21.403Z,7.70
2018-09-04T20:51:49.535Z,10.87
2018-09-04T20:54:17.669Z,9.47
2018-09-04T20:57:23.738Z,11.43
2018-09-04T21:00:04.985Z,10.10
2018-09-04T21:02:45.016Z,12.40
2018-09-04T21:05:25.187Z,13.70
2018-09-04T21:08:16.639Z,12.23
2018-09-04T21:10:45.234Z,9.93
2018-09-04T21:13:13.908Z,9.73
2018-09-04T21:15:42.018Z,10.30
2018-09-04T21:18:10.203Z,21.27
2018-09-04T21:20:38.428Z,9.73
2018-09-04T21:23:06.556Z,11.27
2018-09-04T21:25:34.651Z,12.00
2018-09-04T21:28:02.769Z,13.13
2018-09-04T21:30:30.903Z,13.40
2018-09-04T21:32:59.057Z,11.47
2018-09-04T21:35:27.194Z,11.10
2018-09-04T21:37:55.336Z,14.40
2018-09-04T21:40:23.450Z,10.43
2018-09-04T21:42:51.575Z,10.20
2018-09-04T21:45:19.695Z,10.77
2018-09-04T21:47:47.867Z,9.67
2018-09-04T21:50:16.049Z,11.10
2018-09-04T21:52:44.153Z,9.70
2018-09-04T21:55:12.264Z,9.73
2018-09-04T21:57:40.404Z,10.40
2018-09-04T22:00:09.255Z,10.03
2018-09-04T22:02:37.355Z,9.67
2018-09-04T22:05:05.780Z,10.07
2018-09-04T22:07:33.875Z,11.07
2018-09-04T22:10:01.973Z,10.40
2018-09-04T22:12:31.071Z,11.93
2018-09-04T22:14:59.167Z,9.43
2018-09-04T22:17:27.254Z,9.37
2018-09-04T22:19:55.342Z,9.40
2018-09-04T22:25:16.934Z,13.93
2018-09-04T22:27:45.025Z,11.00
2018-09-04T22:30:13.125Z,10.27
2018-09-04T22:32:41.207Z,13.90
2018-09-04T22:35:09.299Z,10.53
2018-09-04T22:37:37.398Z,11.53
2018-09-04T22:40:05.804Z,12.03
2018-09-04T22:42:33.891Z,9.93
2018-09-04T22:45:01.984Z,11.20
2018-09-04T22:47:30.159Z,11.47
2018-09-04T22:50:03.831Z,9.83
2018-09-04T22:52:32.258Z,14.97
2018-09-04T22:55:02.687Z,11.37
2018-09-04T22:57:31.384Z,12.00
2018-09-04T23:00:09.679Z,10.00
2018-09-04T23:02:37.772Z,10.33
2018-09-04T23:05:05.940Z,12.63
2018-09-04T23:07:34.059Z,10.23
2018-09-04T23:10:02.176Z,11.47
2018-09-04T23:12:30.292Z,11.43
2018-09-04T23:14:58.519Z,11.23
2018-09-04T23:17:26.646Z,11.60
2018-09-04T23:19:54.792Z,11.53
2018-09-04T23:22:22.903Z,11.70
2018-09-04T23:24:52.449Z,12.97
2018-09-04T23:27:20.562Z,11.73
2018-09-04T23:29:49.522Z,10.17
2018-09-04T23:32:17.635Z,12.37
2018-09-04T23:34:45.757Z,12.13
2018-09-04T23:37:13.875Z,11.47
2018-09-04T23:39:41.977Z,11.43
2018-09-04T23:42:10.082Z,12.50
2018-09-04T23:44:38.198Z,11.20
2018-09-04T23:47:06.298Z,13.33
2018-09-04T23:49:34.403Z,11.80
2018-09-04T23:52:02.536Z,15.07
2018-09-04T23:54:30.630Z,12.40
2018-09-04T23:56:58.763Z,10.70
2018-09-04T23:59:26.898Z,12.60
